Time;durP1;ratioP1;P1;durP2;ratioP2;P2;SDS_P1;SDS_P2;PMS_P1;PMS_P2;Temp;Humidity;BMP_temperature;BMP_pressure;BME280_temperature;BME280_humidity;BME280_pressure;Samples;Min_cycle;Max_cycle;Signal;HPM_P1;HPM_P2
2022/01/09 00:00:24;;;;;;;1.43;1.00;;;4.60;99.40;;;;;;5057190;28;20440;-78
2022/01/09 00:02:51;;;;;;;2.10;1.27;;;4.60;99.30;;;;;;5037198;28;20411;-75
2022/01/09 00:05:17;;;;;;;1.47;1.00;;;4.60;99.30;;;;;;5059178;28;20910;-78
2022/01/09 00:07:43;;;;;;;2.90;0.70;;;4.60;99.30;;;;;;5062713;28;20491;-77
2022/01/09 00:10:10;;;;;;;1.20;0.77;;;4.60;99.20;;;;;;5060110;28;20445;-76
2022/01/09 00:12:36;;;;;;;2.37;1.47;;;4.70;99.30;;;;;;5057657;28;20173;-76
2022/01/09 00:15:03;;;;;;;1.07;0.67;;;4.60;99.30;;;;;;5056738;28;20435;-76
2022/01/09 00:17:29;;;;;;;1.90;0.93;;;4.60;99.40;;;;;;5054959;28;20424;-76
2022/01/09 00:19:55;;;;;;;1.00;0.60;;;4.70;99.50;;;;;;5040092;28;20436;-74
2022/01/09 00:22:32;;;;;;;1.90;1.27;;;4.70;99.50;;;;;;5066234;28;20177;-76
2022/01/09 00:24:58;;;;;;;1.10;0.90;;;4.70;99.50;;;;;;5066784;28;20219;-76
2022/01/09 00:27:24;;;;;;;1.80;0.70;;;4.70;99.60;;;;;;5047184;28;20827;-76
2022/01/09 00:29:49;;;;;;;1.43;0.80;;;4.70;99.60;;;;;;5060705;28;20432;-77
2022/01/09 00:32:15;;;;;;;1.23;0.77;;;4.70;99.60;;;;;;5036059;28;20507;-77
2022/01/09 00:34:41;;;;;;;2.00;1.00;;;4.70;99.70;;;;;;5053055;28;20173;-77
2022/01/09 00:37:09;;;;;;;1.67;0.70;;;4.70;99.80;;;;;;5070285;28;20189;-75
2022/01/09 00:39:39;;;;;;;2.20;0.90;;;4.70;99.90;;;;;;5069524;28;20188;-76
2022/01/09 00:42:05;;;;;;;2.10;1.30;;;4.70;99.80;;;;;;5063730;28;20407;-76
2022/01/09 00:44:31;;;;;;;1.50;0.90;;;4.70;99.80;;;;;;5072592;28;20927;-76
2022/01/09 00:47:00;;;;;;;2.50;1.10;;;4.70;99.80;;;;;;5082202;28;20391;-76
2022/01/09 00:49:31;;;;;;;3.83;0.87;;;4.70;99.90;;;;;;5050921;28;20205;-75
2022/01/09 00:51:56;;;;;;;1.00;0.70;;;4.70;99.90;;;;;;5050051;28;20400;-76
2022/01/09 00:54:22;;;;;;;1.27;0.77;;;4.70;99.90;;;;;;5060354;28;20162;-77
2022/01/09 00:56:48;;;;;;;1.53;0.80;;;4.70;99.90;;;;;;5051745;28;20216;-77
2022/01/09 00:59:14;;;;;;;2.23;1.07;;;4.70;99.90;;;;;;5051669;28;20432;-77
2022/01/09 01:01:40;;;;;;;1.33;0.90;;;4.70;99.90;;;;;;5033484;28;20233;-76
2022/01/09 01:04:07;;;;;;;1.30;0.90;;;4.70;99.90;;;;;;5056099;28;20166;-77
2022/01/09 01:06:32;;;;;;;5.33;0.97;;;4.70;99.90;;;;;;5047487;28;20200;-77
2022/01/09 01:08:58;;;;;;;1.50;1.10;;;4.70;99.90;;;;;;5064893;28;20771;-76
2022/01/09 01:11:24;;;;;;;1.33;1.00;;;4.70;99.90;;;;;;5075118;28;20173;-77
2022/01/09 01:13:49;;;;;;;2.13;0.90;;;4.70;99.90;;;;;;5038283;28;20550;-76
2022/01/09 01:16:15;;;;;;;1.80;0.90;;;4.70;99.90;;;;;;5053399;28;20166;-77
2022/01/09 01:18:44;;;;;;;1.43;0.90;;;4.70;99.90;;;;;;5036043;28;20203;-77
2022/01/09 01:21:10;;;;;;;2.23;1.20;;;4.70;99.90;;;;;;5052004;28;20211;-77
2022/01/09 01:23:35;;;;;;;1.53;1.00;;;4.70;99.90;;;;;;5017409;28;20412;-77
2022/01/09 01:26:02;;;;;;;2.10;1.00;;;4.70;99.90;;;;;;5051903;28;20420;-77
2022/01/09 01:28:29;;;;;;;2.43;1.27;;;4.70;99.90;;;;;;5033103;28;20197;-77
2022/01/09 01:30:55;;;;;;;2.83;1.13;;;4.70;99.90;;;;;;5054774;28;20779;-75
2022/01/09 01:33:21;;;;;;;1.77;1.10;;;4.70;99.90;;;;;;5055350;28;20420;-76
2022/01/09 01:35:47;;;;;;;3.50;1.40;;;4.70;99.90;;;;;;5054943;28;20427;-76
2022/01/09 01:38:13;;;;;;;2.83;1.20;;;4.70;99.90;;;;;;5036207;28;20188;-76
2022/01/09 01:40:40;;;;;;;0.87;0.63;;;4.70;99.90;;;;;;5036173;28;20519;-76
2022/01/09 01:43:06;;;;;;;2.07;0.83;;;4.70;99.90;;;;;;5055298;28;20407;-77
2022/01/09 01:45:32;;;;;;;2.80;1.30;;;4.80;99.90;;;;;;5055024;28;20443;-77
2022/01/09 01:48:05;;;;;;;1.97;1.07;;;4.80;99.90;;;;;;5054749;28;20488;-77
2022/01/09 01:50:36;;;;;;;0.90;0.50;;;4.80;99.90;;;;;;5055019;28;20193;-77
2022/01/09 01:53:04;;;;;;;2.30;0.63;;;4.90;99.90;;;;;;5038520;28;20423;-77
2022/01/09 01:55:36;;;;;;;1.73;0.83;;;4.90;99.90;;;;;;5057101;28;20496;-77
2022/01/09 01:58:02;;;;;;;2.80;1.37;;;4.90;99.90;;;;;;5056497;28;20818;-76
2022/01/09 02:00:27;;;;;;;2.80;0.97;;;4.90;99.90;;;;;;5036426;28;20452;-77
2022/01/09 02:03:03;;;;;;;2.10;0.97;;;4.90;99.90;;;;;;5082736;22;20714;-85
2022/01/09 02:05:49;;;;;;;5.10;1.30;;;5.00;99.90;;;;;;5048522;28;20439;-85
2022/01/09 02:08:25;;;;;;;2.23;0.90;;;5.00;99.90;;;;;;5028668;28;20771;-84
2022/01/09 02:11:15;;;;;;;1.97;1.00;;;5.00;99.90;;;;;;5033860;28;20836;-85
2022/01/09 02:13:50;;;;;;;1.37;0.80;;;5.00;99.90;;;;;;5018673;28;20485;-83
2022/01/09 02:19:27;;;;;;;2.03;1.27;;;5.10;99.90;;;;;;4986427;28;20681;-77
2022/01/09 02:21:55;;;;;;;2.63;1.50;;;5.10;99.90;;;;;;4977238;28;20459;-77
2022/01/09 02:24:23;;;;;;;2.37;1.47;;;5.20;99.90;;;;;;4979577;28;20420;-75
2022/01/09 02:26:49;;;;;;;1.50;1.07;;;5.30;99.90;;;;;;4983483;28;20812;-77
2022/01/09 02:29:14;;;;;;;1.47;0.80;;;5.30;99.90;;;;;;4974812;28;20403;-76
2022/01/09 02:31:40;;;;;;;1.80;0.90;;;5.40;99.90;;;;;;4974489;28;20893;-75
2022/01/09 02:34:06;;;;;;;1.83;0.70;;;5.40;99.90;;;;;;4975208;28;20173;-77
2022/01/09 02:36:32;;;;;;;1.83;0.60;;;5.40;99.90;;;;;;4974762;28;20287;-77
2022/01/09 02:38:57;;;;;;;1.53;0.70;;;5.30;99.90;;;;;;4975150;28;20192;-77
2022/01/09 02:41:23;;;;;;;1.23;0.53;;;5.30;99.90;;;;;;4968947;28;20196;-76
2022/01/09 02:43:49;;;;;;;1.97;0.57;;;5.30;99.90;;;;;;4973471;28;20753;-77
2022/01/09 02:49:06;;;;;;;2.90;1.03;;;5.20;99.90;;;;;;4962161;28;20932;-76
2022/01/09 02:51:33;;;;;;;1.07;0.50;;;5.20;99.90;;;;;;4970243;28;20403;-76
2022/01/09 02:55:04;;;;;;;1.00;0.60;;;5.10;99.90;;;;;;4974224;28;20412;-76
2022/01/09 02:56:45;;;;;;;0.77;0.50;;;5.10;99.90;;;;;;4974127;28;20428;-76
2022/01/09 02:59:10;;;;;;;1.67;0.70;;;5.00;99.90;;;;;;4974224;28;20947;-76
2022/01/09 03:01:36;;;;;;;3.43;0.80;;;5.00;99.90;;;;;;4971219;28;20676;-76
2022/01/09 03:04:01;;;;;;;4.67;1.03;;;5.00;99.90;;;;;;4975232;28;20169;-76
2022/01/09 03:06:27;;;;;;;2.40;0.60;;;5.00;99.90;;;;;;4970078;28;20188;-75
2022/01/09 03:08:54;;;;;;;5.90;0.90;;;5.00;99.90;;;;;;4974655;28;20255;-77
2022/01/09 03:11:20;;;;;;;2.13;1.03;;;5.00;99.90;;;;;;4975747;28;20583;-77
2022/01/09 03:13:46;;;;;;;7.10;1.50;;;5.00;99.90;;;;;;4976453;28;20407;-77
2022/01/09 03:16:11;;;;;;;2.43;1.23;;;5.00;99.90;;;;;;4966952;28;20232;-77
2022/01/09 03:18:37;;;;;;;7.70;1.63;;;5.00;99.90;;;;;;4973882;28;20184;-77
2022/01/09 03:21:03;;;;;;;2.70;1.00;;;5.10;99.90;;;;;;4973718;28;20204;-76
2022/01/09 03:23:28;;;;;;;8.43;1.13;;;5.10;99.90;;;;;;4974158;28;20585;-76
2022/01/09 03:25:54;;;;;;;4.97;2.00;;;5.10;99.90;;;;;;4973907;28;20224;-76
2022/01/09 03:28:19;;;;;;;15.77;1.97;;;5.10;99.90;;;;;;4973865;28;20175;-76
2022/01/09 03:30:45;;;;;;;8.60;2.07;;;5.10;99.90;;;;;;4971745;28;20173;-78
2022/01/09 03:33:11;;;;;;;5.33;1.60;;;5.20;99.90;;;;;;4974211;28;20176;-75
2022/01/09 03:35:36;;;;;;;17.73;1.80;;;5.20;99.90;;;;;;4969658;28;20172;-76
2022/01/09 03:38:02;;;;;;;6.83;1.77;;;5.20;99.90;;;;;;4973549;28;20212;-76
2022/01/09 03:40:28;;;;;;;6.30;1.87;;;5.20;99.90;;;;;;4968135;28;20216;-75
2022/01/09 03:42:55;;;;;;;8.70;1.80;;;5.30;99.90;;;;;;4945110;29;20471;-76
2022/01/09 03:45:23;;;;;;;10.13;2.70;;;5.30;99.90;;;;;;4954341;28;20424;-76
2022/01/09 03:47:49;;;;;;;4.57;1.37;;;5.30;99.90;;;;;;4952832;29;20433;-76
2022/01/09 03:50:17;;;;;;;6.73;1.77;;;5.30;99.90;;;;;;4967268;28;20431;-75
2022/01/09 03:52:43;;;;;;;8.13;1.63;;;5.30;99.90;;;;;;4976347;28;20423;-74
2022/01/09 03:55:11;;;;;;;9.10;1.73;;;5.30;99.90;;;;;;4971349;28;20403;-76
2022/01/09 03:57:37;;;;;;;9.53;1.93;;;5.30;99.90;;;;;;4974493;28;20471;-76
2022/01/09 04:00:07;;;;;;;7.03;1.97;;;5.30;99.90;;;;;;4974442;28;20498;-75
2022/01/09 04:02:33;;;;;;;7.60;1.93;;;5.30;99.90;;;;;;4969811;28;20416;-76
2022/01/09 04:04:58;;;;;;;11.93;2.60;;;5.30;99.90;;;;;;4973630;28;20415;-76
2022/01/09 04:07:24;;;;;;;6.73;1.70;;;5.30;99.90;;;;;;4973206;28;20840;-76
2022/01/09 04:09:50;;;;;;;11.67;4.40;;;5.30;99.90;;;;;;4973613;28;20207;-76
2022/01/09 04:12:30;;;;;;;13.37;2.77;;;5.30;99.90;;;;;;4967268;28;20619;-76
2022/01/09 04:14:56;;;;;;;13.93;5.40;;;5.30;99.90;;;;;;4970978;28;20244;-76
2022/01/09 04:17:34;;;;;;;20.53;3.47;;;5.30;99.90;;;;;;4962873;28;20730;-75
2022/01/09 04:20:00;;;;;;;21.30;4.43;;;5.30;99.90;;;;;;4954462;29;20405;-76
2022/01/09 04:22:26;;;;;;;17.77;4.90;;;5.40;99.90;;;;;;4954682;29;20499;-76
2022/01/09 04:24:51;;;;;;;13.07;4.00;;;5.40;99.90;;;;;;4952248;29;20173;-76
2022/01/09 04:27:17;;;;;;;10.30;3.70;;;5.40;99.90;;;;;;4953752;29;20193;-76
2022/01/09 04:29:43;;;;;;;33.87;7.00;;;5.50;99.90;;;;;;4955160;29;20165;-74
2022/01/09 04:32:09;;;;;;;16.10;4.30;;;5.50;99.90;;;;;;4963481;28;20256;-76
2022/01/09 04:34:34;;;;;;;19.03;4.17;;;5.50;99.90;;;;;;4955356;29;20172;-76
2022/01/09 04:37:00;;;;;;;15.90;5.37;;;5.50;99.90;;;;;;4955986;29;20440;-75
2022/01/09 04:39:29;;;;;;;16.53;3.13;;;5.50;99.90;;;;;;4960712;29;20197;-76
2022/01/09 04:41:55;;;;;;;21.53;4.53;;;5.50;99.90;;;;;;4958226;29;20197;-76
2022/01/09 04:44:21;;;;;;;11.20;3.70;;;5.50;99.90;;;;;;4949832;29;20424;-76
2022/01/09 04:46:54;;;;;;;21.33;5.27;;;5.50;99.90;;;;;;4955188;29;20439;-76
2022/01/09 04:49:23;;;;;;;18.80;3.63;;;5.50;99.90;;;;;;4955473;29;20232;-75
2022/01/09 04:51:49;;;;;;;19.70;4.87;;;5.60;99.90;;;;;;4969376;28;20503;-76
2022/01/09 04:54:15;;;;;;;15.30;3.30;;;5.60;99.90;;;;;;4953884;29;20412;-76
2022/01/09 04:56:40;;;;;;;15.27;4.20;;;5.60;99.90;;;;;;4953775;29;20239;-78
2022/01/09 04:59:06;;;;;;;19.80;3.80;;;5.60;99.90;;;;;;4961814;28;20209;-75
2022/01/09 05:01:32;;;;;;;12.80;3.43;;;5.60;99.90;;;;;;4953684;29;20678;-75
2022/01/09 05:03:57;;;;;;;11.40;2.87;;;5.60;99.90;;;;;;4954937;28;20168;-76
2022/01/09 05:06:24;;;;;;;17.13;3.07;;;5.60;99.90;;;;;;4957055;29;20716;-75
2022/01/09 05:08:50;;;;;;;18.40;4.33;;;5.60;99.90;;;;;;4971196;28;20250;-75
2022/01/09 05:11:15;;;;;;;17.50;3.60;;;5.70;99.90;;;;;;4957989;29;20460;-76
2022/01/09 05:13:41;;;;;;;18.10;2.80;;;5.70;99.90;;;;;;4957133;29;20943;-75
2022/01/09 05:16:07;;;;;;;13.80;4.10;;;5.70;99.90;;;;;;4957937;28;20279;-76
2022/01/09 05:18:41;;;;;;;16.90;4.87;;;5.70;99.90;;;;;;4953585;28;20208;-76
2022/01/09 05:21:07;;;;;;;11.17;3.90;;;5.60;99.90;;;;;;4957368;29;20471;-77
2022/01/09 05:23:33;;;;;;;21.10;3.10;;;5.70;99.90;;;;;;4969333;28;20472;-76
2022/01/09 05:25:59;;;;;;;15.10;3.50;;;5.60;99.90;;;;;;4949821;29;20559;-76
2022/01/09 05:28:24;;;;;;;13.07;3.00;;;5.70;99.90;;;;;;4973047;28;20177;-76
2022/01/09 05:30:50;;;;;;;10.03;3.27;;;5.70;99.90;;;;;;4973301;28;20177;-74
2022/01/09 05:33:15;;;;;;;8.73;2.67;;;5.60;99.90;;;;;;4967381;28;20252;-75
2022/01/09 05:35:41;;;;;;;6.00;2.97;;;5.60;99.90;;;;;;4956964;29;20241;-76
2022/01/09 05:38:07;;;;;;;8.33;3.50;;;5.60;99.90;;;;;;4957182;29;20192;-76
2022/01/09 05:40:33;;;;;;;15.13;4.00;;;5.60;99.90;;;;;;4957012;29;20464;-75
2022/01/09 05:42:58;;;;;;;16.83;3.83;;;5.60;99.90;;;;;;4957943;28;20580;-75
2022/01/09 05:45:24;;;;;;;17.27;3.00;;;5.60;99.90;;;;;;4969895;28;20169;-76
2022/01/09 05:47:50;;;;;;;11.93;2.80;;;5.60;99.90;;;;;;4956883;28;20651;-77
2022/01/09 05:50:15;;;;;;;9.00;2.83;;;5.60;99.90;;;;;;4966944;28;20305;-76
2022/01/09 05:52:41;;;;;;;13.73;3.27;;;5.60;99.90;;;;;;4972026;28;20188;-75
2022/01/09 05:55:07;;;;;;;10.13;3.47;;;5.60;99.90;;;;;;4956243;29;20178;-75
2022/01/09 05:57:33;;;;;;;14.37;3.00;;;5.60;99.90;;;;;;4957511;29;20202;-76
2022/01/09 05:59:59;;;;;;;6.10;2.67;;;5.60;99.90;;;;;;4964541;28;20926;-75
2022/01/09 06:02:25;;;;;;;10.47;3.57;;;5.60;99.90;;;;;;4956854;29;20169;-75
2022/01/09 06:04:50;;;;;;;9.50;2.40;;;5.60;99.90;;;;;;4957082;29;20464;-76
2022/01/09 06:07:16;;;;;;;17.60;3.00;;;5.60;99.90;;;;;;4961873;28;20506;-75
2022/01/09 06:09:42;;;;;;;15.47;3.57;;;5.60;99.90;;;;;;4975838;28;20188;-76
2022/01/09 06:12:08;;;;;;;13.07;2.53;;;5.60;99.70;;;;;;4968322;28;20235;-76
2022/01/09 06:14:34;;;;;;;13.37;2.70;;;5.60;99.40;;;;;;4974567;28;20180;-75
2022/01/09 06:16:59;;;;;;;31.87;3.53;;;5.60;99.40;;;;;;4974176;28;20436;-76
2022/01/09 06:19:25;;;;;;;17.23;3.10;;;5.60;99.00;;;;;;4976029;28;20184;-75
2022/01/09 06:21:51;;;;;;;14.87;2.77;;;5.60;98.80;;;;;;4976122;28;20207;-75
2022/01/09 06:24:16;;;;;;;9.83;2.50;;;5.60;98.80;;;;;;4970755;28;20169;-75
2022/01/09 06:26:42;;;;;;;9.77;3.00;;;5.60;98.30;;;;;;4975633;28;20188;-76
2022/01/09 06:29:08;;;;;;;17.53;2.67;;;5.60;98.50;;;;;;4975706;28;20173;-76
2022/01/09 06:31:33;;;;;;;6.93;2.20;;;5.60;98.50;;;;;;4975003;28;20176;-77
2022/01/09 06:33:59;;;;;;;9.77;2.10;;;5.60;98.60;;;;;;4950925;28;20172;-77
2022/01/09 06:36:24;;;;;;;14.40;3.30;;;5.60;98.60;;;;;;4973622;28;20192;-76
2022/01/09 06:38:50;;;;;;;8.00;2.63;;;5.60;97.90;;;;;;4973547;28;20176;-76
2022/01/09 06:41:16;;;;;;;6.87;2.40;;;5.60;98.20;;;;;;4975084;28;20688;-76
2022/01/09 06:43:44;;;;;;;4.03;2.17;;;5.60;98.20;;;;;;4972343;28;20259;-75
2022/01/09 06:46:10;;;;;;;14.10;2.70;;;5.50;98.10;;;;;;4975051;28;20268;-76
2022/01/09 06:48:35;;;;;;;17.73;3.70;;;5.50;97.90;;;;;;4971770;28;20458;-76
2022/01/09 06:51:01;;;;;;;9.13;2.83;;;5.50;97.80;;;;;;4975347;28;20835;-76
2022/01/09 06:53:27;;;;;;;15.47;2.60;;;5.50;97.90;;;;;;4975363;28;20168;-76
2022/01/09 06:55:52;;;;;;;8.90;2.80;;;5.40;97.90;;;;;;4973522;28;20649;-73
2022/01/09 06:58:21;;;;;;;10.90;2.43;;;5.40;97.80;;;;;;4974841;28;20184;-75
2022/01/09 07:00:47;;;;;;;15.33;3.30;;;5.40;97.90;;;;;;4974218;28;20211;-75
2022/01/09 07:03:13;;;;;;;11.73;2.87;;;5.50;97.90;;;;;;4974803;28;20416;-76
2022/01/09 07:05:38;;;;;;;10.70;2.23;;;5.50;97.90;;;;;;4974655;28;20868;-75
2022/01/09 07:08:04;;;;;;;15.30;3.10;;;5.50;97.50;;;;;;4960217;28;20189;-75
2022/01/09 07:10:31;;;;;;;7.90;3.20;;;5.50;97.50;;;;;;4955460;28;20177;-75
2022/01/09 07:12:56;;;;;;;10.80;3.43;;;5.50;97.40;;;;;;4946695;29;20184;-75
2022/01/09 07:15:22;;;;;;;16.33;2.83;;;5.50;97.50;;;;;;4954861;28;20413;-75
2022/01/09 07:17:48;;;;;;;8.33;2.13;;;5.50;97.20;;;;;;4953990;28;20267;-77
2022/01/09 07:20:14;;;;;;;8.33;2.87;;;5.50;97.20;;;;;;4974520;28;20454;-75
2022/01/09 07:22:39;;;;;;;7.93;2.10;;;5.50;97.10;;;;;;4974550;28;20169;-76
2022/01/09 07:25:05;;;;;;;10.17;3.00;;;5.50;97.20;;;;;;4974329;28;20337;-76
2022/01/09 07:27:33;;;;;;;9.60;3.00;;;5.50;97.00;;;;;;4969048;28;20200;-76
2022/01/09 07:29:59;;;;;;;5.90;1.97;;;5.50;97.00;;;;;;4965867;28;20416;-76
2022/01/09 07:32:24;;;;;;;9.90;3.40;;;5.50;96.90;;;;;;4956815;28;20505;-74
2022/01/09 07:34:50;;;;;;;4.30;2.40;;;5.50;96.90;;;;;;4968926;28;20166;-76
2022/01/09 07:37:16;;;;;;;9.20;2.70;;;5.50;96.80;;;;;;4955907;28;20331;-75
2022/01/09 07:39:41;;;;;;;12.37;3.13;;;5.50;97.00;;;;;;4955274;29;20220;-77
2022/01/09 07:42:07;;;;;;;13.33;3.30;;;5.50;97.00;;;;;;4955030;29;20212;-76
2022/01/09 07:44:33;;;;;;;2.50;1.80;;;5.50;97.10;;;;;;4954671;29;20192;-76
2022/01/09 07:46:59;;;;;;;9.70;2.60;;;5.50;97.10;;;;;;4954402;29;20456;-76
2022/01/09 07:49:25;;;;;;;11.23;2.33;;;5.50;97.20;;;;;;4956684;29;20844;-75
2022/01/09 07:51:51;;;;;;;7.33;2.47;;;5.50;97.20;;;;;;4973048;28;20183;-75
2022/01/09 07:54:16;;;;;;;8.40;2.20;;;5.50;97.10;;;;;;4955010;29;20184;-76
2022/01/09 07:56:42;;;;;;;9.87;2.80;;;5.50;97.10;;;;;;4975509;28;20463;-75
2022/01/09 07:59:08;;;;;;;10.60;2.10;;;5.50;97.20;;;;;;4959310;29;20180;-74
2022/01/09 08:01:33;;;;;;;10.00;2.93;;;5.50;97.00;;;;;;4967267;28;20204;-76
2022/01/09 08:03:59;;;;;;;13.10;2.23;;;5.50;96.90;;;;;;4954220;29;20539;-76
2022/01/09 08:06:24;;;;;;;9.57;3.27;;;5.50;96.80;;;;;;4954281;29;20260;-75
2022/01/09 08:08:50;;;;;;;3.60;1.87;;;5.50;97.20;;;;;;4968963;28;20197;-76
2022/01/09 08:11:17;;;;;;;12.73;1.80;;;5.50;96.70;;;;;;4966032;28;20184;-75
2022/01/09 08:13:44;;;;;;;5.10;2.23;;;5.50;96.80;;;;;;4969472;28;20181;-77
2022/01/09 08:16:10;;;;;;;6.57;2.63;;;5.50;96.80;;;;;;4963272;28;20436;-77
2022/01/09 08:18:36;;;;;;;10.77;2.47;;;5.50;96.40;;;;;;4954619;28;20457;-77
2022/01/09 08:21:01;;;;;;;13.80;4.70;;;5.50;96.70;;;;;;4961906;28;20351;-74
2022/01/09 08:23:27;;;;;;;11.00;3.33;;;5.50;96.50;;;;;;4954179;28;20172;-74
2022/01/09 08:25:52;;;;;;;7.00;1.90;;;5.50;96.40;;;;;;4954313;28;20235;-76
2022/01/09 08:28:18;;;;;;;14.40;2.83;;;5.50;96.40;;;;;;4954013;29;20602;-76
2022/01/09 08:30:44;;;;;;;5.60;2.20;;;5.60;96.50;;;;;;4967968;28;20177;-76
2022/01/09 08:33:10;;;;;;;6.60;2.23;;;5.60;96.30;;;;;;4963481;28;20201;-76
2022/01/09 08:35:35;;;;;;;5.67;2.10;;;5.60;96.30;;;;;;4950861;28;20276;-76
2022/01/09 08:38:01;;;;;;;12.50;2.80;;;5.60;96.10;;;;;;4954230;28;20285;-76
2022/01/09 08:40:27;;;;;;;6.10;2.33;;;5.60;96.10;;;;;;4965000;28;20196;-76
2022/01/09 08:42:55;;;;;;;13.73;3.60;;;5.60;95.90;;;;;;4953811;29;20246;-77
2022/01/09 08:45:23;;;;;;;10.40;3.90;;;5.70;96.00;;;;;;4964823;28;20208;-76
2022/01/09 08:47:49;;;;;;;9.83;3.70;;;5.70;96.00;;;;;;4952774;29;20432;-76
2022/01/09 08:50:18;;;;;;;18.60;4.53;;;5.70;95.70;;;;;;4954450;29;20417;-75
2022/01/09 08:52:45;;;;;;;7.87;3.00;;;5.70;95.70;;;;;;4954002;29;20533;-76
2022/01/09 08:55:11;;;;;;;11.60;4.33;;;5.70;95.80;;;;;;4954376;29;20417;-76
2022/01/09 08:57:36;;;;;;;12.00;3.40;;;5.70;95.80;;;;;;4954149;29;20527;-76
2022/01/09 09:00:05;;;;;;;7.20;2.70;;;5.70;95.60;;;;;;4954145;29;20533;-75
2022/01/09 09:02:30;;;;;;;14.30;3.10;;;5.70;95.30;;;;;;4954202;29;20175;-76
2022/01/09 09:04:56;;;;;;;5.93;3.03;;;5.70;95.50;;;;;;4952778;29;20425;-75
2022/01/09 09:07:24;;;;;;;7.77;2.50;;;5.80;95.30;;;;;;4961194;28;20205;-76
2022/01/09 09:09:51;;;;;;;8.70;2.13;;;5.80;94.90;;;;;;4971877;28;20169;-75
2022/01/09 09:12:18;;;;;;;13.70;2.43;;;5.80;95.20;;;;;;4957016;28;20817;-75
2022/01/09 09:14:46;;;;;;;9.90;3.27;;;5.80;95.20;;;;;;4966588;28;20516;-76
2022/01/09 09:17:13;;;;;;;10.17;3.13;;;5.90;94.80;;;;;;4963325;28;20496;-75
2022/01/09 09:19:38;;;;;;;8.03;2.73;;;5.90;95.10;;;;;;4952140;28;20432;-76
2022/01/09 09:22:04;;;;;;;13.53;3.17;;;5.90;94.80;;;;;;4958614;28;21017;-72
2022/01/09 09:24:30;;;;;;;8.60;3.50;;;6.00;94.90;;;;;;4972687;28;20183;-71
2022/01/09 09:26:55;;;;;;;11.20;3.20;;;6.00;94.40;;;;;;4956259;28;20280;-72
2022/01/09 09:29:21;;;;;;;9.00;3.00;;;6.00;94.50;;;;;;4959434;28;20165;-70
2022/01/09 09:31:47;;;;;;;8.80;3.30;;;6.00;94.90;;;;;;4961593;28;20255;-72
2022/01/09 09:34:13;;;;;;;8.40;3.00;;;6.10;94.50;;;;;;4963475;28;20189;-74
2022/01/09 09:36:38;;;;;;;8.77;3.20;;;6.10;94.60;;;;;;4956697;28;20201;-72
2022/01/09 09:39:05;;;;;;;5.67;2.40;;;6.10;95.00;;;;;;4956234;28;20674;-74
2022/01/09 09:41:31;;;;;;;8.33;2.63;;;6.10;94.80;;;;;;4956968;28;20432;-71
2022/01/09 09:43:57;;;;;;;12.60;3.50;;;6.20;94.80;;;;;;4948770;28;20443;-73
2022/01/09 09:46:24;;;;;;;8.63;2.50;;;6.40;94.80;;;;;;4941823;28;20456;-71
2022/01/09 09:48:51;;;;;;;13.77;2.50;;;6.60;94.50;;;;;;4951191;28;20185;-72
2022/01/09 09:51:17;;;;;;;8.10;2.60;;;6.70;93.00;;;;;;4959836;28;20438;-72
2022/01/09 09:53:43;;;;;;;7.83;2.93;;;6.80;92.40;;;;;;4981750;28;20893;-70
2022/01/09 09:56:09;;;;;;;6.37;2.07;;;6.70;92.70;;;;;;4951944;28;20448;-72
2022/01/09 09:58:39;;;;;;;7.33;2.90;;;6.70;92.80;;;;;;4954438;28;20598;-72
2022/01/09 10:01:05;;;;;;;10.87;3.00;;;6.60;92.40;;;;;;4959376;28;20562;-72
2022/01/09 10:03:33;;;;;;;7.60;3.40;;;6.50;93.00;;;;;;4954806;29;20640;-73
2022/01/09 10:06:00;;;;;;;5.77;2.50;;;6.50;93.20;;;;;;4959041;28;20317;-72
2022/01/09 10:08:39;;;;;;;5.93;1.90;;;6.50;92.70;;;;;;4969256;28;20430;-74
2022/01/09 10:11:13;;;;;;;7.67;2.73;;;6.40;93.00;;;;;;4945436;28;20459;-74
2022/01/09 10:13:39;;;;;;;6.37;3.03;;;6.40;93.20;;;;;;4956486;29;20444;-75
2022/01/09 10:16:05;;;;;;;3.07;2.23;;;6.30;93.00;;;;;;4948603;29;20449;-73
2022/01/09 10:18:49;;;;;;;11.40;3.37;;;6.20;93.60;;;;;;4954818;29;20192;-73
2022/01/09 10:21:22;;;;;;;6.13;2.80;;;6.20;93.80;;;;;;4956325;29;20211;-73
2022/01/09 10:24:12;;;;;;;9.37;3.03;;;6.20;93.60;;;;;;4957982;29;20416;-73
2022/01/09 10:26:40;;;;;;;7.87;2.40;;;6.20;93.60;;;;;;4953150;29;20428;-74
2022/01/09 10:29:08;;;;;;;2.97;1.93;;;6.20;93.40;;;;;;4955887;29;20413;-74
2022/01/09 10:31:44;;;;;;;9.27;2.60;;;6.20;93.80;;;;;;4956951;28;20447;-71
2022/01/09 10:34:11;;;;;;;7.33;3.07;;;6.20;93.80;;;;;;4965468;28;20432;-73
2022/01/09 10:36:43;;;;;;;6.57;2.90;;;6.10;93.70;;;;;;4966649;28;20464;-74
2022/01/09 10:39:14;;;;;;;13.87;3.83;;;6.10;94.00;;;;;;4955640;29;20444;-72
2022/01/09 10:41:50;;;;;;;5.27;3.00;;;6.20;93.60;;;;;;4956739;29;20449;-76
2022/01/09 10:44:20;;;;;;;9.57;2.93;;;6.20;93.80;;;;;;4957239;29;20494;-75
2022/01/09 10:47:06;;;;;;;12.37;3.53;;;6.30;93.40;;;;;;4958013;29;20436;-73
2022/01/09 10:49:38;;;;;;;6.47;2.50;;;6.40;93.10;;;;;;4953824;29;20425;-74
2022/01/09 10:52:22;;;;;;;10.30;2.97;;;6.30;93.00;;;;;;4953095;28;20460;-74
2022/01/09 10:54:50;;;;;;;11.43;3.23;;;6.30;93.30;;;;;;4964320;28;20497;-74
2022/01/09 10:57:22;;;;;;;11.90;2.70;;;6.30;93.10;;;;;;4969726;28;20469;-75
2022/01/09 10:59:49;;;;;;;7.73;2.83;;;6.20;93.20;;;;;;4962672;29;20424;-73
2022/01/09 11:02:16;;;;;;;7.90;3.33;;;6.20;93.30;;;;;;4965385;28;20468;-73
2022/01/09 11:04:44;;;;;;;9.63;3.20;;;6.10;93.40;;;;;;4969573;29;20496;-73
2022/01/09 11:07:11;;;;;;;6.33;2.50;;;6.10;93.50;;;;;;4964244;29;20453;-74
2022/01/09 11:09:44;;;;;;;6.80;3.93;;;6.10;93.50;;;;;;4954469;29;20484;-74
2022/01/09 11:12:16;;;;;;;7.70;3.10;;;6.10;93.70;;;;;;4957829;28;20437;-72
2022/01/09 11:14:43;;;;;;;9.20;2.93;;;6.20;93.60;;;;;;4957729;28;20428;-73
2022/01/09 11:17:09;;;;;;;4.90;2.77;;;6.20;93.60;;;;;;4958353;28;20436;-75
2022/01/09 11:19:37;;;;;;;6.67;2.90;;;6.20;93.20;;;;;;4965863;28;20495;-74
2022/01/09 11:22:06;;;;;;;6.67;2.83;;;6.20;93.40;;;;;;4957554;29;20460;-73
2022/01/09 11:24:50;;;;;;;7.63;2.87;;;6.20;93.50;;;;;;4956581;29;20429;-71
2022/01/09 11:27:43;;;;;;;4.43;3.13;;;6.30;93.30;;;;;;4953781;28;21028;-74
2022/01/09 11:30:28;;;;;;;5.37;2.80;;;6.40;93.70;;;;;;4945962;29;20461;-73
2022/01/09 11:33:19;;;;;;;11.43;3.20;;;6.50;93.60;;;;;;4971686;28;20446;-73
2022/01/09 11:35:55;;;;;;;10.10;3.47;;;6.70;92.80;;;;;;4953143;29;20417;-76
2022/01/09 11:38:25;;;;;;;6.63;2.50;;;6.80;92.90;;;;;;4960038;29;20412;-75
2022/01/09 11:40:51;;;;;;;6.27;3.10;;;6.80;92.60;;;;;;4972424;28;20518;-72
2022/01/09 11:43:19;;;;;;;7.63;2.33;;;6.90;92.50;;;;;;4956710;28;20500;-73
2022/01/09 11:46:01;;;;;;;8.80;3.10;;;7.00;92.30;;;;;;4955903;29;20180;-74
2022/01/09 11:48:51;;;;;;;8.50;2.90;;;6.90;92.10;;;;;;4964203;28;20813;-73
2022/01/09 11:51:21;;;;;;;5.30;2.77;;;6.90;91.70;;;;;;4958991;28;20424;-74
2022/01/09 11:54:08;;;;;;;7.27;2.77;;;7.00;92.30;;;;;;4969176;28;20435;-76
2022/01/09 11:56:43;;;;;;;5.53;3.00;;;7.10;91.60;;;;;;4936919;29;20425;-74
2022/01/09 11:59:32;;;;;;;9.67;2.90;;;7.20;91.80;;;;;;4948190;29;20800;-73
2022/01/09 12:02:29;;;;;;;8.43;3.53;;;7.20;91.30;;;;;;4955931;29;20468;-74
2022/01/09 12:05:06;;;;;;;4.87;2.83;;;7.20;91.20;;;;;;4946558;28;20448;-71
2022/01/09 12:07:32;;;;;;;4.30;2.70;;;7.10;91.70;;;;;;4976873;28;20436;-75
2022/01/09 12:10:18;;;;;;;12.47;3.07;;;7.10;91.90;;;;;;4958254;28;20456;-76
2022/01/09 12:12:45;;;;;;;6.50;2.30;;;7.20;91.60;;;;;;4954777;28;20433;-75
2022/01/09 12:15:11;;;;;;;6.63;2.33;;;7.20;90.90;;;;;;4954768;29;20420;-74
2022/01/09 12:17:39;;;;;;;8.40;2.93;;;7.20;91.20;;;;;;4965381;28;20444;-73
2022/01/09 12:20:14;;;;;;;13.30;2.40;;;7.20;90.80;;;;;;4947346;29;20429;-73
2022/01/09 12:22:43;;;;;;;8.17;2.33;;;7.20;91.20;;;;;;4954859;29;20427;-75
2022/01/09 12:25:30;;;;;;;6.83;2.60;;;7.30;90.90;;;;;;4955769;29;20751;-75
2022/01/09 12:28:29;;;;;;;4.80;3.10;;;7.20;90.70;;;;;;4935223;28;20484;-69
2022/01/09 12:30:59;;;;;;;9.50;2.67;;;7.20;90.90;;;;;;4936539;29;20933;-69
2022/01/09 12:33:25;;;;;;;16.60;3.20;;;7.20;90.80;;;;;;4954635;29;20413;-75
2022/01/09 12:35:58;;;;;;;7.70;2.90;;;7.20;91.00;;;;;;4953870;29;20439;-75
2022/01/09 12:38:26;;;;;;;9.67;3.07;;;7.20;90.70;;;;;;4954624;29;20409;-72
2022/01/09 12:41:04;;;;;;;7.73;2.57;;;7.20;90.40;;;;;;4944119;29;20464;-75
2022/01/09 12:43:31;;;;;;;20.20;3.93;;;7.20;90.30;;;;;;4952618;28;20448;-73
2022/01/09 12:45:57;;;;;;;10.57;2.60;;;7.10;90.00;;;;;;4952155;28;20435;-75
2022/01/09 12:48:28;;;;;;;10.00;2.40;;;7.10;90.40;;;;;;4948778;28;20417;-74
2022/01/09 12:51:10;;;;;;;10.73;2.10;;;7.10;90.30;;;;;;4954771;28;20207;-74
2022/01/09 12:53:44;;;;;;;6.07;3.10;;;7.10;90.20;;;;;;4952581;28;20421;-75
2022/01/09 12:56:16;;;;;;;8.70;1.80;;;7.00;90.30;;;;;;4963338;28;20506;-73
2022/01/09 12:58:56;;;;;;;9.40;2.80;;;6.90;90.30;;;;;;4953476;28;20420;-75
2022/01/09 13:01:36;;;;;;;11.00;2.57;;;6.80;90.40;;;;;;4956884;28;20479;-73
2022/01/09 13:04:09;;;;;;;9.43;2.83;;;6.70;90.50;;;;;;4956177;28;20456;-73